Archival Weather

Granbury Rgnl

Granbury, Texas (KGDJ)

Report from: Monday, January 29, 2024 11:15 PM UTC
Current time: Tuesday, June 18, 2024 12:10 PM UTC

Current weather – Weather history – Daily summaries
Weather forecast

Temperature21.0°C (69.8°F)
Dew point3.0°C (37.4°F)
Winds Calm
Visibility10 mi. (16.1 km)
Clouds Sky clear
Altimeter30.20 in.Hg (1023 mB)
Relative humidity31 %
Density altitude499 ft. (152 m)
Remarks Fully automated report
Automated weather observing station with precipitation discriminator
Flight conditions Visual Meteorological Conditions
Raw dataKGDJ 292315Z AUTO 00000KT 10SM CLR 21/03 A3020 RMK AO2 T02100030
An error has occurred. This application may no longer respond until reloaded. Reload 🗙